createdAt,value
2017-11-21T07:18:21.955Z,1006.73
2017-11-21T07:19:21.921Z,1006.73
2017-11-21T07:22:06.472Z,1006.76
2017-11-21T07:23:06.283Z,1006.79
2017-11-21T07:25:50.799Z,1006.71
2017-11-21T07:26:50.649Z,1006.70
2017-11-21T07:29:35.053Z,1006.67
2017-11-21T07:30:35.005Z,1006.70
2017-11-21T07:33:19.397Z,1006.77
2017-11-21T07:34:19.347Z,1006.75
2017-11-21T07:37:03.800Z,1006.80
2017-11-21T07:38:03.709Z,1006.79
2017-11-21T07:40:48.676Z,1006.85
2017-11-21T07:41:51.166Z,1006.84
2017-11-21T07:44:33.041Z,1006.84
2017-11-21T07:45:32.926Z,1006.84
2017-11-21T07:48:17.331Z,1006.87
2017-11-21T07:49:17.276Z,1006.82
2017-11-21T07:52:01.660Z,1006.81
2017-11-21T07:53:01.630Z,1006.75
2017-11-21T07:55:46.027Z,1006.69
2017-11-21T07:56:45.980Z,1006.69
2017-11-21T07:59:30.392Z,1006.75
2017-11-21T08:00:30.906Z,1006.70
2017-11-21T08:03:13.730Z,1006.68
2017-11-21T08:04:16.271Z,1006.66
2017-11-21T08:06:58.094Z,1006.69
2017-11-21T08:07:58.045Z,1006.69
2017-11-21T08:08:58.041Z,1006.69
2017-11-21T08:09:58.048Z,1006.69
2017-11-21T08:10:58.037Z,1006.70
2017-11-21T08:11:58.028Z,1006.64
2017-11-21T08:12:58.029Z,1006.64
2017-11-21T08:13:58.038Z,1006.67
2017-11-21T08:14:58.010Z,1006.69
2017-11-21T08:15:58.003Z,1006.69
2017-11-21T08:16:57.996Z,1006.70
2017-11-21T08:17:58.002Z,1006.70
2017-11-21T08:18:57.994Z,1006.67
2017-11-21T08:19:57.988Z,1006.69
2017-11-21T08:20:57.975Z,1006.65
2017-11-21T08:21:57.982Z,1006.65
2017-11-21T08:22:57.967Z,1006.69
2017-11-21T08:23:57.950Z,1006.70
2017-11-21T08:24:57.948Z,1006.65
2017-11-21T08:25:57.949Z,1006.68
2017-11-21T08:26:57.938Z,1006.68
2017-11-21T08:27:57.936Z,1006.69
2017-11-21T08:28:57.949Z,1006.64
2017-11-21T08:29:57.920Z,1006.66
2017-11-21T08:30:57.916Z,1006.69
2017-11-21T08:31:57.911Z,1006.65
2017-11-21T08:32:57.901Z,1006.67
2017-11-21T08:33:57.911Z,1006.71
2017-11-21T08:34:57.891Z,1006.66
2017-11-21T08:35:57.883Z,1006.70
2017-11-21T08:36:57.883Z,1006.72
2017-11-21T08:37:57.880Z,1006.66
2017-11-21T08:38:57.858Z,1006.68
2017-11-21T08:39:57.859Z,1006.69
2017-11-21T08:40:57.852Z,1006.69
2017-11-21T08:41:57.848Z,1006.68
2017-11-21T08:42:57.845Z,1006.65
2017-11-21T08:43:57.838Z,1006.61
2017-11-21T08:44:57.833Z,1006.63
2017-11-21T08:45:57.848Z,1006.61
2017-11-21T08:46:57.824Z,1006.58
2017-11-21T08:47:57.816Z,1006.55
2017-11-21T08:48:57.813Z,1006.58
2017-11-21T08:49:57.809Z,1006.58
2017-11-21T08:50:57.794Z,1006.60
2017-11-21T08:51:57.793Z,1006.61
2017-11-21T08:52:57.782Z,1006.63
2017-11-21T08:53:57.781Z,1006.69
2017-11-21T08:54:57.810Z,1006.65
2017-11-21T08:55:57.759Z,1006.68
2017-11-21T08:56:57.759Z,1006.72
2017-11-21T08:57:57.750Z,1006.68
2017-11-21T08:58:57.759Z,1006.73
2017-11-21T08:59:57.753Z,1006.77
2017-11-21T09:00:57.744Z,1006.78
2017-11-21T09:01:57.729Z,1006.80
2017-11-21T09:02:57.732Z,1006.77
2017-11-21T09:03:57.734Z,1006.76
2017-11-21T09:04:57.714Z,1006.81
2017-11-21T09:05:57.704Z,1006.79
2017-11-21T09:06:57.707Z,1006.79
2017-11-21T09:07:57.692Z,1006.85
2017-11-21T09:08:57.687Z,1006.81
2017-11-21T09:09:58.657Z,1006.81
2017-11-21T09:10:58.653Z,1006.84
2017-11-21T09:11:57.669Z,1006.81
2017-11-21T09:12:57.666Z,1006.87
2017-11-21T09:13:57.660Z,1006.85
2017-11-21T09:14:57.660Z,1006.87
2017-11-21T09:16:02.558Z,1006.83
2017-11-21T09:16:58.160Z,1006.87
2017-11-21T09:17:57.632Z,1006.89
2017-11-21T09:18:57.634Z,1006.94
2017-11-21T09:19:57.627Z,1006.91
2017-11-21T09:20:57.632Z,1006.90
2017-11-21T09:21:57.615Z,1006.94
2017-11-21T09:22:57.607Z,1006.94
2017-11-21T09:23:57.604Z,1006.96
2017-11-21T09:24:57.591Z,1006.93
2017-11-21T09:25:57.594Z,1006.95
2017-11-21T09:26:58.163Z,1006.98
2017-11-21T09:27:57.586Z,1006.98
2017-11-21T09:28:57.578Z,1006.98
2017-11-21T09:29:57.585Z,1006.96
2017-11-21T09:30:57.558Z,1006.96
2017-11-21T09:31:57.556Z,1006.95
2017-11-21T09:32:57.550Z,1006.98
2017-11-21T09:33:57.540Z,1006.94
2017-11-21T09:34:57.538Z,1006.94
2017-11-21T09:35:57.533Z,1006.93
2017-11-21T09:36:57.530Z,1006.92
2017-11-21T09:37:57.520Z,1006.91
2017-11-21T09:38:57.515Z,1006.90
2017-11-21T09:39:57.511Z,1006.89
2017-11-21T09:40:57.505Z,1006.89
2017-11-21T09:41:57.501Z,1006.87
2017-11-21T09:42:57.487Z,1006.88
2017-11-21T09:43:57.489Z,1006.84
2017-11-21T09:44:57.480Z,1006.86
2017-11-21T09:45:57.478Z,1006.88
2017-11-21T09:46:57.474Z,1006.86
2017-11-21T09:47:57.465Z,1006.91
2017-11-21T09:48:57.458Z,1006.88
2017-11-21T09:49:57.447Z,1006.91
2017-11-21T09:50:57.447Z,1006.92
2017-11-21T09:51:57.440Z,1006.91
2017-11-21T09:52:57.432Z,1006.93
2017-11-21T09:53:57.433Z,1006.93
2017-11-21T09:54:57.427Z,1006.90
2017-11-21T09:55:57.422Z,1006.96
2017-11-21T09:56:57.418Z,1006.93
2017-11-21T09:57:57.414Z,1006.94
2017-11-21T09:58:57.397Z,1006.99
2017-11-21T09:59:57.399Z,1007.01
2017-11-21T10:00:57.405Z,1006.97
2017-11-21T10:01:57.387Z,1006.99
2017-11-21T10:02:57.371Z,1006.97
2017-11-21T10:03:57.378Z,1006.96
2017-11-21T10:04:57.374Z,1006.99
2017-11-21T10:05:57.366Z,1006.96
2017-11-21T10:06:57.366Z,1006.99
2017-11-21T10:07:57.346Z,1006.99
2017-11-21T10:08:57.345Z,1007.01
2017-11-21T10:09:57.338Z,1007.00
2017-11-21T10:10:57.344Z,1006.98
2017-11-21T10:11:57.336Z,1006.98
2017-11-21T10:12:57.327Z,1006.96
2017-11-21T10:13:57.324Z,1006.98
2017-11-21T10:14:58.180Z,1006.93
2017-11-21T10:15:57.307Z,1006.95
2017-11-21T10:16:57.293Z,1006.98
2017-11-21T10:17:57.296Z,1006.97
2017-11-21T10:18:57.284Z,1007.01
2017-11-21T10:19:57.281Z,1006.98
2017-11-21T10:20:57.278Z,1006.94
2017-11-21T10:21:57.270Z,1006.96
2017-11-21T10:22:57.272Z,1006.95
2017-11-21T10:23:57.259Z,1006.96
2017-11-21T10:24:57.252Z,1007.00
2017-11-21T10:25:57.241Z,1006.96
2017-11-21T10:26:57.240Z,1007.00
2017-11-21T10:27:57.255Z,1006.97
2017-11-21T10:28:57.238Z,1006.94
2017-11-21T10:29:58.193Z,1006.91
2017-11-21T10:30:57.229Z,1006.96
2017-11-21T10:31:57.218Z,1006.92
2017-11-21T10:32:58.195Z,1006.91
2017-11-21T10:33:57.201Z,1006.94
2017-11-21T10:34:57.207Z,1006.93
2017-11-21T10:35:57.203Z,1006.93
2017-11-21T10:36:57.193Z,1006.86
2017-11-21T10:37:57.697Z,1006.90
2017-11-21T10:38:57.177Z,1006.88
2017-11-21T10:39:57.200Z,1006.81
2017-11-21T10:40:57.167Z,1006.79
2017-11-21T10:41:57.166Z,1006.82
2017-11-21T10:42:57.153Z,1006.84
2017-11-21T10:43:57.165Z,1006.81
2017-11-21T10:44:57.145Z,1006.86
2017-11-21T10:45:57.141Z,1006.83
2017-11-21T10:46:57.141Z,1006.83
2017-11-21T10:47:57.130Z,1006.83
2017-11-21T10:48:57.130Z,1006.84
2017-11-21T10:49:57.122Z,1006.88
2017-11-21T10:50:57.706Z,1006.88
2017-11-21T10:51:57.112Z,1006.83
2017-11-21T10:52:57.110Z,1006.83
2017-11-21T10:53:57.092Z,1006.79
2017-11-21T10:54:59.707Z,1006.80
2017-11-21T10:55:57.086Z,1006.81
2017-11-21T10:56:57.078Z,1006.80
2017-11-21T10:57:57.073Z,1006.78
2017-11-21T10:58:57.068Z,1006.77
2017-11-21T10:59:57.064Z,1006.73
2017-11-21T11:00:57.058Z,1006.74
2017-11-21T11:01:57.053Z,1006.80
2017-11-21T11:02:57.700Z,1006.76
2017-11-21T11:03:57.049Z,1006.74
2017-11-21T11:04:57.038Z,1006.76
2017-11-21T11:05:57.033Z,1006.72
2017-11-21T11:06:57.030Z,1006.74
2017-11-21T11:07:57.023Z,1006.72
2017-11-21T11:08:57.019Z,1006.71
2017-11-21T11:09:57.017Z,1006.71
2017-11-21T11:10:57.013Z,1006.68
2017-11-21T11:11:57.010Z,1006.65
2017-11-21T11:12:57.707Z,1006.65
2017-11-21T11:13:56.994Z,1006.66
2017-11-21T11:14:56.984Z,1006.68
2017-11-21T11:15:56.978Z,1006.70
2017-11-21T11:16:56.973Z,1006.68
2017-11-21T11:17:56.965Z,1006.66
2017-11-21T11:18:56.964Z,1006.67
2017-11-21T11:19:56.965Z,1006.67
2017-11-21T11:20:56.957Z,1006.65
2017-11-21T11:21:56.945Z,1006.64
2017-11-21T11:22:56.950Z,1006.63
2017-11-21T11:23:56.942Z,1006.60
2017-11-21T11:24:56.937Z,1006.62
2017-11-21T11:25:56.931Z,1006.58
2017-11-21T11:26:56.924Z,1006.60
2017-11-21T11:27:56.924Z,1006.64
2017-11-21T11:28:56.927Z,1006.61
2017-11-21T11:29:56.908Z,1006.61
2017-11-21T11:30:57.715Z,1006.63
2017-11-21T11:31:56.895Z,1006.59
2017-11-21T11:32:56.891Z,1006.56
2017-11-21T11:33:56.899Z,1006.60
2017-11-21T11:34:56.882Z,1006.60
2017-11-21T11:35:56.879Z,1006.55
2017-11-21T11:36:56.892Z,1006.58
2017-11-21T11:37:56.864Z,1006.59
2017-11-21T11:38:56.858Z,1006.53
2017-11-21T11:39:56.857Z,1006.57
2017-11-21T11:40:56.849Z,1006.54
2017-11-21T11:41:56.851Z,1006.54
2017-11-21T11:42:56.846Z,1006.53
2017-11-21T11:43:56.840Z,1006.51
2017-11-21T11:44:56.832Z,1006.56
2017-11-21T11:45:56.831Z,1006.56
2017-11-21T11:46:56.830Z,1006.57
2017-11-21T11:47:57.727Z,1006.53
2017-11-21T11:48:57.724Z,1006.54
2017-11-21T11:49:56.815Z,1006.56
2017-11-21T11:50:56.806Z,1006.52
2017-11-21T11:51:56.796Z,1006.55
2017-11-21T11:52:56.792Z,1006.56
2017-11-21T11:53:56.788Z,1006.59
2017-11-21T11:54:56.781Z,1006.59
2017-11-21T11:55:56.777Z,1006.58
2017-11-21T11:56:57.727Z,1006.59
2017-11-21T11:57:56.776Z,1006.60
2017-11-21T11:58:56.769Z,1006.62
2017-11-21T11:59:56.761Z,1006.62
2017-11-21T12:00:56.749Z,1006.64
2017-11-21T12:01:56.749Z,1006.68
2017-11-21T12:02:56.748Z,1006.67
2017-11-21T12:03:56.754Z,1006.63
2017-11-21T12:04:56.728Z,1006.68
2017-11-21T12:05:56.733Z,1006.66
2017-11-21T12:06:56.725Z,1006.68
2017-11-21T12:07:57.232Z,1006.69
2017-11-21T12:08:56.714Z,1006.71
2017-11-21T12:09:56.710Z,1006.69
2017-11-21T12:10:56.713Z,1006.71
2017-11-21T12:11:56.714Z,1006.72
2017-11-21T12:12:57.239Z,1006.70
2017-11-21T12:13:56.704Z,1006.64
2017-11-21T12:14:56.686Z,1006.65
2017-11-21T12:15:57.234Z,1006.65
2017-11-21T12:16:57.267Z,1006.64
2017-11-21T12:17:56.673Z,1006.65
2017-11-21T12:18:56.657Z,1006.66
2017-11-21T12:19:56.666Z,1006.63
2017-11-21T12:20:56.657Z,1006.57
2017-11-21T12:21:56.651Z,1006.60
2017-11-21T12:22:56.655Z,1006.62
2017-11-21T12:23:56.638Z,1006.61
2017-11-21T12:24:56.632Z,1006.59
2017-11-21T12:25:56.630Z,1006.62
2017-11-21T12:26:56.640Z,1006.58
2017-11-21T12:27:57.247Z,1006.58
2017-11-21T12:28:56.617Z,1006.54
2017-11-21T12:29:56.623Z,1006.54
2017-11-21T12:30:56.609Z,1006.56
2017-11-21T12:31:56.605Z,1006.58
2017-11-21T12:32:56.606Z,1006.56
2017-11-21T12:33:56.603Z,1006.57
2017-11-21T12:34:56.585Z,1006.60
2017-11-21T12:35:57.264Z,1006.60
2017-11-21T12:36:56.581Z,1006.63
2017-11-21T12:37:56.593Z,1006.63
2017-11-21T12:38:56.575Z,1006.64
2017-11-21T12:39:56.567Z,1006.58
2017-11-21T12:40:56.572Z,1006.61
2017-11-21T12:41:56.559Z,1006.61
2017-11-21T12:42:56.560Z,1006.56
2017-11-21T12:43:56.558Z,1006.62
2017-11-21T12:44:56.549Z,1006.59
2017-11-21T12:45:56.530Z,1006.62
2017-11-21T12:46:56.543Z,1006.59
2017-11-21T12:47:56.529Z,1006.58
2017-11-21T12:48:56.522Z,1006.56
2017-11-21T12:49:56.514Z,1006.57
2017-11-21T12:50:57.261Z,1006.57
2017-11-21T12:51:56.512Z,1006.51
2017-11-21T12:52:56.511Z,1006.51
2017-11-21T12:53:56.510Z,1006.54
2017-11-21T12:54:56.522Z,1006.57
2017-11-21T12:55:56.494Z,1006.58
2017-11-21T12:56:56.481Z,1006.59
2017-11-21T12:57:57.274Z,1006.53
2017-11-21T12:58:56.474Z,1006.57
2017-11-21T12:59:56.472Z,1006.56
2017-11-21T13:00:57.269Z,1006.55
2017-11-21T13:01:56.465Z,1006.52
2017-11-21T13:02:56.453Z,1006.56
2017-11-21T13:03:56.452Z,1006.56
2017-11-21T13:04:56.449Z,1006.46
2017-11-21T13:05:56.443Z,1006.45
2017-11-21T13:06:56.442Z,1006.40
2017-11-21T13:07:56.437Z,1006.45
2017-11-21T13:08:56.430Z,1006.47
2017-11-21T13:09:56.422Z,1006.44
2017-11-21T13:10:56.424Z,1006.46
2017-11-21T13:11:56.407Z,1006.43
2017-11-21T13:12:56.408Z,1006.42
2017-11-21T13:13:56.403Z,1006.39
2017-11-21T13:14:56.398Z,1006.41
2017-11-21T13:15:56.399Z,1006.41
2017-11-21T13:16:56.385Z,1006.41
2017-11-21T13:17:56.375Z,1006.38
2017-11-21T13:18:56.378Z,1006.35
2017-11-21T13:19:56.377Z,1006.33
2017-11-21T13:20:56.365Z,1006.35
2017-11-21T13:21:56.364Z,1006.34
2017-11-21T13:22:56.368Z,1006.32
2017-11-21T13:23:56.361Z,1006.34
2017-11-21T13:24:56.345Z,1006.36
2017-11-21T13:25:56.345Z,1006.37
2017-11-21T13:26:56.342Z,1006.36
2017-11-21T13:27:56.337Z,1006.40
2017-11-21T13:28:56.325Z,1006.41
2017-11-21T13:29:56.336Z,1006.36
2017-11-21T13:30:56.322Z,1006.42
2017-11-21T13:31:56.317Z,1006.42
2017-11-21T13:32:56.312Z,1006.41
2017-11-21T13:33:56.301Z,1006.39
2017-11-21T13:34:56.299Z,1006.37
2017-11-21T13:35:56.304Z,1006.39
2017-11-21T13:36:56.291Z,1006.41
2017-11-21T13:37:56.292Z,1006.45
2017-11-21T13:38:56.287Z,1006.41
2017-11-21T13:39:56.289Z,1006.42
2017-11-21T13:40:56.280Z,1006.42
2017-11-21T13:41:56.277Z,1006.43
2017-11-21T13:42:56.265Z,1006.48
2017-11-21T13:43:56.264Z,1006.44
2017-11-21T13:44:56.255Z,1006.42
2017-11-21T13:45:56.248Z,1006.38
2017-11-21T13:46:56.240Z,1006.45
2017-11-21T13:47:56.268Z,1006.43
2017-11-21T13:48:56.236Z,1006.45
2017-11-21T13:49:56.230Z,1006.44
2017-11-21T13:50:56.230Z,1006.46
2017-11-21T13:51:56.222Z,1006.43
2017-11-21T13:52:56.226Z,1006.43
2017-11-21T13:53:56.209Z,1006.46
2017-11-21T13:54:56.223Z,1006.43
2017-11-21T13:55:56.788Z,1006.40
2017-11-21T13:56:56.206Z,1006.40
2017-11-21T13:57:56.189Z,1006.39
2017-11-21T13:58:56.787Z,1006.41
2017-11-21T13:59:56.187Z,1006.42
2017-11-21T14:00:56.183Z,1006.39
2017-11-21T14:01:56.172Z,1006.40
2017-11-21T14:02:56.173Z,1006.37
2017-11-21T14:03:56.168Z,1006.33
2017-11-21T14:04:56.164Z,1006.36
2017-11-21T14:05:56.167Z,1006.37
2017-11-21T14:06:56.153Z,1006.42
2017-11-21T14:07:56.151Z,1006.39
2017-11-21T14:08:56.143Z,1006.37
2017-11-21T14:09:56.140Z,1006.40
2017-11-21T14:10:56.138Z,1006.44
2017-11-21T14:11:56.129Z,1006.39
2017-11-21T14:12:56.125Z,1006.45
2017-11-21T14:13:56.128Z,1006.43
2017-11-21T14:14:56.105Z,1006.38
2017-11-21T14:15:56.103Z,1006.44
2017-11-21T14:16:56.123Z,1006.48
2017-11-21T14:17:56.106Z,1006.46
2017-11-21T14:18:56.110Z,1006.48
2017-11-21T14:19:56.095Z,1006.48
2017-11-21T14:20:56.091Z,1006.49
2017-11-21T14:21:56.082Z,1006.49
2017-11-21T14:22:56.079Z,1006.51
2017-11-21T14:23:56.077Z,1006.44
2017-11-21T14:24:56.078Z,1006.47
2017-11-21T14:25:56.803Z,1006.53
2017-11-21T14:26:56.048Z,1006.51
2017-11-21T14:27:56.053Z,1006.49
2017-11-21T14:28:56.050Z,1006.54
2017-11-21T14:29:56.056Z,1006.51
2017-11-21T14:30:56.795Z,1006.54
2017-11-21T14:31:56.791Z,1006.59
2017-11-21T14:32:56.021Z,1006.53
2017-11-21T14:33:56.032Z,1006.60
2017-11-21T14:34:56.014Z,1006.60
2017-11-21T14:35:56.038Z,1006.59
2017-11-21T14:36:56.003Z,1006.60
2017-11-21T14:37:56.002Z,1006.69
2017-11-21T14:38:56.811Z,1006.63
2017-11-21T14:39:55.999Z,1006.70
2017-11-21T14:40:55.996Z,1006.67
2017-11-21T14:41:55.977Z,1006.69
2017-11-21T14:42:56.805Z,1006.66
2017-11-21T14:43:55.971Z,1006.65
2017-11-21T14:44:55.974Z,1006.57
2017-11-21T14:45:55.960Z,1006.59
2017-11-21T14:46:55.951Z,1006.60
2017-11-21T14:47:55.953Z,1006.55
2017-11-21T14:48:55.945Z,1006.52
2017-11-21T14:49:55.947Z,1006.43
2017-11-21T14:50:55.928Z,1006.49
2017-11-21T14:51:56.803Z,1006.48
2017-11-21T14:52:55.918Z,1006.49
2017-11-21T14:53:55.923Z,1006.47
2017-11-21T14:54:55.910Z,1006.40
2017-11-21T14:55:55.930Z,1006.37
2017-11-21T14:56:55.895Z,1006.36
2017-11-21T14:57:55.894Z,1006.41
2017-11-21T14:58:55.889Z,1006.37
2017-11-21T14:59:55.889Z,1006.38
2017-11-21T15:00:55.881Z,1006.38
2017-11-21T15:01:55.876Z,1006.39
2017-11-21T15:02:55.896Z,1006.38
2017-11-21T15:03:56.819Z,1006.35
2017-11-21T15:04:55.859Z,1006.34
2017-11-21T15:05:55.877Z,1006.37
2017-11-21T15:06:55.842Z,1006.32
2017-11-21T15:07:55.839Z,1006.32
2017-11-21T15:08:55.829Z,1006.29
2017-11-21T15:09:55.836Z,1006.29
2017-11-21T15:10:55.837Z,1006.24
2017-11-21T15:11:56.314Z,1006.26
2017-11-21T15:12:55.823Z,1006.20
2017-11-21T15:13:55.813Z,1006.18
2017-11-21T15:14:55.806Z,1006.18
2017-11-21T15:15:55.796Z,1006.12
2017-11-21T15:16:55.803Z,1006.12
2017-11-21T15:17:55.790Z,1006.11
2017-11-21T15:18:55.776Z,1006.10
2017-11-21T15:19:56.341Z,1006.10
2017-11-21T15:20:55.762Z,1006.13
2017-11-21T15:21:55.766Z,1006.14
2017-11-21T15:22:56.324Z,1006.11
2017-11-21T15:23:55.759Z,1006.15
2017-11-21T15:24:55.738Z,1006.13
2017-11-21T15:25:55.745Z,1006.05
2017-11-21T15:26:56.324Z,1006.07
2017-11-21T15:27:55.726Z,1006.02
2017-11-21T15:28:55.718Z,1006.10
2017-11-21T15:29:55.717Z,1006.10
2017-11-21T15:30:55.723Z,1006.09
2017-11-21T15:31:55.718Z,1006.10
2017-11-21T15:32:55.708Z,1006.18
2017-11-21T15:33:55.711Z,1006.19
2017-11-21T15:34:55.692Z,1006.21
2017-11-21T15:35:55.681Z,1006.24
2017-11-21T15:36:56.326Z,1006.25
2017-11-21T15:37:55.672Z,1006.22
2017-11-21T15:38:55.680Z,1006.24
2017-11-21T15:39:55.663Z,1006.24
2017-11-21T15:40:56.322Z,1006.31
2017-11-21T15:41:55.648Z,1006.26
2017-11-21T15:42:55.641Z,1006.20
2017-11-21T15:43:55.648Z,1006.16
2017-11-21T15:44:55.630Z,1006.15
2017-11-21T15:45:55.618Z,1006.14
2017-11-21T15:46:55.625Z,1006.15
2017-11-21T15:47:55.608Z,1006.18
2017-11-21T15:48:55.610Z,1006.20
2017-11-21T15:49:55.604Z,1006.29
2017-11-21T15:50:55.624Z,1006.34
2017-11-21T15:51:55.593Z,1006.40
2017-11-21T15:52:55.579Z,1006.46
2017-11-21T15:53:55.568Z,1006.44
2017-11-21T15:54:55.583Z,1006.49
2017-11-21T15:55:55.574Z,1006.45
2017-11-21T15:56:55.554Z,1006.40
2017-11-21T15:57:55.568Z,1006.40
2017-11-21T15:58:55.541Z,1006.38
2017-11-21T15:59:55.546Z,1006.35
2017-11-21T16:00:55.532Z,1006.33
2017-11-21T16:01:55.525Z,1006.29
2017-11-21T16:02:55.557Z,1006.24
2017-11-21T16:03:55.509Z,1006.22
2017-11-21T16:04:55.502Z,1006.23
2017-11-21T16:05:56.335Z,1006.23
2017-11-21T16:06:55.504Z,1006.21
2017-11-21T16:07:55.481Z,1006.27
2017-11-21T16:08:55.488Z,1006.27
2017-11-21T16:09:55.486Z,1006.33
2017-11-21T16:10:55.474Z,1006.28
2017-11-21T16:11:56.272Z,1006.30
2017-11-21T16:12:55.469Z,1006.29
2017-11-21T16:13:55.457Z,1006.22
2017-11-21T16:14:55.442Z,1006.20
2017-11-21T16:15:55.440Z,1006.20
2017-11-21T16:16:55.443Z,1006.22
2017-11-21T16:17:55.425Z,1006.15
2017-11-21T16:18:55.445Z,1006.20
2017-11-21T16:19:55.426Z,1006.20
2017-11-21T16:20:55.411Z,1006.21
2017-11-21T16:21:55.405Z,1006.20
2017-11-21T16:22:55.397Z,1006.20
2017-11-21T16:23:55.395Z,1006.20
2017-11-21T16:24:55.382Z,1006.16
2017-11-21T16:25:55.386Z,1006.19
2017-11-21T16:26:55.390Z,1006.11
2017-11-21T16:27:55.364Z,1006.08
2017-11-21T16:28:55.364Z,1006.12
2017-11-21T16:29:55.369Z,1006.12
2017-11-21T16:30:55.383Z,1006.15
2017-11-21T16:31:55.356Z,1006.15
2017-11-21T16:32:55.347Z,1006.16
2017-11-21T16:33:55.341Z,1006.15
2017-11-21T16:34:55.338Z,1006.26
2017-11-21T16:35:55.321Z,1006.25
2017-11-21T16:36:55.350Z,1006.31
2017-11-21T16:37:55.309Z,1006.24
2017-11-21T16:38:55.301Z,1006.22
2017-11-21T16:39:55.296Z,1006.18
2017-11-21T16:40:55.296Z,1006.15
2017-11-21T16:41:55.296Z,1006.10
2017-11-21T16:42:55.286Z,1006.07
2017-11-21T16:43:55.278Z,1006.07
2017-11-21T16:44:55.267Z,1006.01
2017-11-21T16:45:55.257Z,1006.09
2017-11-21T16:46:55.253Z,1006.10
2017-11-21T16:47:55.270Z,1006.03
2017-11-21T16:48:55.262Z,1006.02
2017-11-21T16:49:55.243Z,1005.99
2017-11-21T16:50:55.239Z,1006.02
2017-11-21T16:51:55.223Z,1006.02
2017-11-21T16:52:55.226Z,1005.98
2017-11-21T16:53:55.203Z,1006.01
2017-11-21T16:54:55.214Z,1006.02
2017-11-21T16:55:55.205Z,1006.06
2017-11-21T16:56:55.202Z,1006.03
2017-11-21T16:57:55.185Z,1006.09
2017-11-21T16:58:55.170Z,1006.08
2017-11-21T16:59:55.175Z,1006.18
2017-11-21T17:00:55.172Z,1006.17
2017-11-21T17:01:55.163Z,1006.16
2017-11-21T17:02:55.148Z,1006.14
2017-11-21T17:03:55.148Z,1006.13
2017-11-21T17:04:55.146Z,1006.18
2017-11-21T17:05:55.144Z,1006.09
2017-11-21T17:06:55.132Z,1006.17
2017-11-21T17:07:55.121Z,1006.17
2017-11-21T17:08:55.122Z,1006.22
2017-11-21T17:09:55.112Z,1006.26
2017-11-21T17:10:55.110Z,1006.27
2017-11-21T17:11:55.100Z,1006.21
2017-11-21T17:12:55.090Z,1006.28
2017-11-21T17:13:55.101Z,1006.25
2017-11-21T17:14:55.079Z,1006.33
2017-11-21T17:15:55.074Z,1006.30
2017-11-21T17:16:55.102Z,1006.29
2017-11-21T17:17:55.061Z,1006.32
2017-11-21T17:18:55.059Z,1006.36
2017-11-21T17:19:55.057Z,1006.37
2017-11-21T17:20:55.044Z,1006.30
2017-11-21T17:21:55.046Z,1006.29
2017-11-21T17:22:55.037Z,1006.24
2017-11-21T17:23:55.031Z,1006.30
2017-11-21T17:24:55.017Z,1006.30
2017-11-21T17:25:55.017Z,1006.24
2017-11-21T17:26:55.004Z,1006.22
2017-11-21T17:27:54.999Z,1006.23
2017-11-21T17:28:54.994Z,1006.25
2017-11-21T17:29:54.991Z,1006.25
2017-11-21T17:30:55.006Z,1006.20
2017-11-21T17:31:54.973Z,1006.18
2017-11-21T17:32:54.962Z,1006.13
2017-11-21T17:33:54.959Z,1006.13
2017-11-21T17:34:54.957Z,1006.06
2017-11-21T17:35:54.960Z,1006.06
2017-11-21T17:36:54.936Z,1006.14
2017-11-21T17:37:54.935Z,1006.17
2017-11-21T17:38:54.936Z,1006.21
2017-11-21T17:39:54.918Z,1006.30
2017-11-21T17:40:54.912Z,1006.30
2017-11-21T17:41:54.912Z,1006.31
2017-11-21T17:42:54.904Z,1006.33
2017-11-21T17:43:54.901Z,1006.29
2017-11-21T17:44:54.894Z,1006.31
2017-11-21T17:45:54.890Z,1006.31
2017-11-21T17:46:54.879Z,1006.31
2017-11-21T17:47:54.873Z,1006.22
2017-11-21T17:48:54.868Z,1006.24
2017-11-21T17:49:55.379Z,1006.32
2017-11-21T17:50:54.848Z,1006.31
2017-11-21T17:51:54.844Z,1006.27
2017-11-21T17:52:54.829Z,1006.24
2017-11-21T17:53:54.835Z,1006.29
2017-11-21T17:54:54.834Z,1006.26
2017-11-21T17:55:54.817Z,1006.36
2017-11-21T17:56:54.817Z,1006.32
2017-11-21T17:57:55.520Z,1006.29
2017-11-21T17:58:54.801Z,1006.28
2017-11-21T17:59:54.797Z,1006.28
2017-11-21T18:00:54.788Z,1006.30
2017-11-21T18:01:54.775Z,1006.27
2017-11-21T18:02:54.775Z,1006.30
2017-11-21T18:03:55.390Z,1006.26
2017-11-21T18:04:54.773Z,1006.25
2017-11-21T18:05:54.752Z,1006.29
2017-11-21T18:06:54.756Z,1006.20
2017-11-21T18:07:54.737Z,1006.30
2017-11-21T18:08:54.739Z,1006.29
2017-11-21T18:09:54.734Z,1006.22
2017-11-21T18:10:54.722Z,1006.32
2017-11-21T18:11:54.722Z,1006.45
2017-11-21T18:12:54.702Z,1006.41
2017-11-21T18:13:54.701Z,1006.40
2017-11-21T18:14:54.699Z,1006.40
2017-11-21T18:15:55.411Z,1006.43
2017-11-21T18:16:57.387Z,1006.42
2017-11-21T18:17:54.675Z,1006.42
2017-11-21T18:18:54.675Z,1006.41
2017-11-21T18:19:54.661Z,1006.36
2017-11-21T18:20:54.652Z,1006.36
2017-11-21T18:21:54.650Z,1006.37
2017-11-21T18:22:54.644Z,1006.31
2017-11-21T18:23:54.641Z,1006.31
2017-11-21T18:24:54.634Z,1006.28
2017-11-21T18:25:54.618Z,1006.31
2017-11-21T18:26:54.618Z,1006.33
2017-11-21T18:27:54.947Z,1006.44
2017-11-21T18:28:54.597Z,1006.40
2017-11-21T18:29:54.609Z,1006.43
2017-11-21T18:30:54.589Z,1006.43
2017-11-21T18:31:54.586Z,1006.42
2017-11-21T18:32:54.578Z,1006.39
2017-11-21T18:33:54.577Z,1006.40
2017-11-21T18:34:54.585Z,1006.40
2017-11-21T18:35:54.562Z,1006.41
2017-11-21T18:36:54.553Z,1006.41
2017-11-21T18:37:54.548Z,1006.45
2017-11-21T18:38:54.542Z,1006.49
2017-11-21T18:39:54.537Z,1006.51
2017-11-21T18:40:54.537Z,1006.50
2017-11-21T18:41:54.522Z,1006.49
2017-11-21T18:42:54.523Z,1006.45
2017-11-21T18:43:54.509Z,1006.45
2017-11-21T18:44:54.501Z,1006.43
2017-11-21T18:45:55.411Z,1006.40
2017-11-21T18:46:54.492Z,1006.47
2017-11-21T18:47:54.489Z,1006.42
2017-11-21T18:48:54.475Z,1006.47
2017-11-21T18:49:54.470Z,1006.43
2017-11-21T18:50:55.416Z,1006.47
2017-11-21T18:51:54.453Z,1006.44
2017-11-21T18:52:54.450Z,1006.46
2017-11-21T18:53:54.446Z,1006.48
2017-11-21T18:54:54.440Z,1006.44
2017-11-21T18:55:54.435Z,1006.43
2017-11-21T18:56:55.421Z,1006.43
2017-11-21T18:57:54.437Z,1006.42
2017-11-21T18:58:54.405Z,1006.39
2017-11-21T18:59:54.404Z,1006.35
2017-11-21T19:00:54.404Z,1006.35
2017-11-21T19:01:54.383Z,1006.31
2017-11-21T19:02:54.916Z,1006.37
2017-11-21T19:03:54.390Z,1006.39
2017-11-21T19:04:56.130Z,1006.43
2017-11-21T19:05:54.364Z,1006.42
2017-11-21T19:06:54.359Z,1006.46
2017-11-21T19:07:54.345Z,1006.47
2017-11-21T19:08:54.336Z,1006.44
2017-11-21T19:09:54.340Z,1006.46
2017-11-21T19:10:54.336Z,1006.47
2017-11-21T19:11:54.320Z,1006.48
2017-11-21T19:12:54.322Z,1006.46
2017-11-21T19:13:54.311Z,1006.47
2017-11-21T19:14:54.308Z,1006.51
2017-11-21T19:15:54.314Z,1006.48
2017-11-21T19:16:54.296Z,1006.49
2017-11-21T19:17:54.288Z,1006.44
2017-11-21T19:18:54.274Z,1006.42
2017-11-21T19:19:54.276Z,1006.43
2017-11-21T19:20:54.267Z,1006.46
2017-11-21T19:21:54.253Z,1006.51
2017-11-21T19:22:54.255Z,1006.47
2017-11-21T19:23:54.267Z,1006.49
2017-11-21T19:24:54.262Z,1006.46
2017-11-21T19:25:54.239Z,1006.42
2017-11-21T19:26:54.220Z,1006.48
2017-11-21T19:27:54.226Z,1006.43
2017-11-21T19:28:54.210Z,1006.43
2017-11-21T19:29:54.794Z,1006.49
2017-11-21T19:30:54.202Z,1006.40
2017-11-21T19:31:55.652Z,1006.38
2017-11-21T19:32:55.061Z,1006.38
2017-11-21T19:33:54.178Z,1006.37
2017-11-21T19:34:54.174Z,1006.39
2017-11-21T19:35:54.583Z,1006.39
2017-11-21T19:36:54.163Z,1006.47
2017-11-21T19:37:54.151Z,1006.47
2017-11-21T19:38:54.148Z,1006.53
2017-11-21T19:39:54.139Z,1006.55
2017-11-21T19:40:54.935Z,1006.56
2017-11-21T19:41:54.149Z,1006.59
2017-11-21T19:42:54.137Z,1006.59
2017-11-21T19:43:54.110Z,1006.65
2017-11-21T19:44:54.109Z,1006.66
2017-11-21T19:45:54.119Z,1006.64